Hearst, Canada
Current Conditions -  °F | °C
As of 6:00 AM on Friday 24 Oct 2014 (Local Time) from CYYU Reporting Station
Broken Clouds Broken Clouds  
Wind Chill: 29°   Ceiling: 5000
Heat Index: 34°   Visibility: 15mi
Dew Point: 30°   Wind: 6mph
Humidity: 87%   Direction: 200°SSW
Pressure: 29.95"   Gusts: NA
Location:  49.69°N, 83.66°W
Report Text: CYYU 241000Z 20005KT 15SM BKN050 01/M01 A2995 RMK SC7 SLP151
Loading
Personal Weather Stations






























Interactive Weather Map
Tropical Storm Tracking
New forecast layout! Learn more

10-Day Weather Forecast

Advertisements
Track Severe Weather on mobile